sensor_id;sensor_type;location;lat;lon;timestamp;pressure;altitude;pressure_sealevel;temperature;humidity
38530;BME280;24301;54.332;48.386;2022-08-11T00:01:17;99433.75;;;20.04;71.80
38530;BME280;24301;54.332;48.386;2022-08-11T00:03:47;99445.28;;;20.04;71.65
38530;BME280;24301;54.332;48.386;2022-08-11T00:06:14;99441.97;;;19.99;71.94
38530;BME280;24301;54.332;48.386;2022-08-11T00:08:41;99450.13;;;19.96;71.91
38530;BME280;24301;54.332;48.386;2022-08-11T00:11:10;99458.13;;;19.96;72.13
38530;BME280;24301;54.332;48.386;2022-08-11T00:13:39;99458.91;;;19.98;72.49
38530;BME280;24301;54.332;48.386;2022-08-11T00:16:23;99458.91;;;19.98;72.77
38530;BME280;24301;54.332;48.386;2022-08-11T00:18:52;99456.38;;;19.95;72.89
38530;BME280;24301;54.332;48.386;2022-08-11T00:21:23;99454.81;;;19.91;73.34
38530;BME280;24301;54.332;48.386;2022-08-11T00:23:59;99458.38;;;19.90;74.08
38530;BME280;24301;54.332;48.386;2022-08-11T00:26:27;99455.91;;;19.85;73.77
38530;BME280;24301;54.332;48.386;2022-08-11T00:28:54;99460.25;;;19.88;73.90
38530;BME280;24301;54.332;48.386;2022-08-11T00:31:23;99458.66;;;19.84;74.47
38530;BME280;24301;54.332;48.386;2022-08-11T00:33:51;99456.06;;;19.82;74.86
38530;BME280;24301;54.332;48.386;2022-08-11T00:36:19;99456.09;;;19.80;74.95
38530;BME280;24301;54.332;48.386;2022-08-11T00:38:50;99451.00;;;19.76;75.16
38530;BME280;24301;54.332;48.386;2022-08-11T00:49:15;99469.19;;;19.87;74.47
38530;BME280;24301;54.332;48.386;2022-08-11T00:57:20;99470.38;;;19.79;74.41
38530;BME280;24301;54.332;48.386;2022-08-11T01:00:11;99480.09;;;19.80;74.64
38530;BME280;24301;54.332;48.386;2022-08-11T01:05:33;99486.75;;;19.72;74.24
38530;BME280;24301;54.332;48.386;2022-08-11T01:20:35;99490.53;;;19.66;74.30
38530;BME280;24301;54.332;48.386;2022-08-11T01:28:35;99511.38;;;19.56;74.63
38530;BME280;24301;54.332;48.386;2022-08-11T01:42:55;99498.13;;;19.55;76.24
38530;BME280;24301;54.332;48.386;2022-08-11T01:54:03;99494.22;;;19.82;76.35
38530;BME280;24301;54.332;48.386;2022-08-11T01:56:52;99491.38;;;19.87;76.44
38530;BME280;24301;54.332;48.386;2022-08-11T01:59:42;99499.44;;;19.86;76.15
38530;BME280;24301;54.332;48.386;2022-08-11T02:02:38;99495.31;;;19.99;76.01
38530;BME280;24301;54.332;48.386;2022-08-11T02:05:25;99508.16;;;20.29;75.32
38530;BME280;24301;54.332;48.386;2022-08-11T02:19:41;99507.44;;;21.02;73.23
38530;BME280;24301;54.332;48.386;2022-08-11T02:22:38;99520.66;;;21.23;72.51
38530;BME280;24301;54.332;48.386;2022-08-11T02:28:30;99529.44;;;21.95;69.96
38530;BME280;24301;54.332;48.386;2022-08-11T02:33:59;99530.94;;;21.84;70.51
38530;BME280;24301;54.332;48.386;2022-08-11T02:36:58;99537.41;;;21.79;70.80
38530;BME280;24301;54.332;48.386;2022-08-11T02:48:07;99545.88;;;22.05;70.98
38530;BME280;24301;54.332;48.386;2022-08-11T02:56:47;99564.38;;;21.92;70.89
38530;BME280;24301;54.332;48.386;2022-08-11T02:59:27;99568.72;;;21.77;71.78
38530;BME280;24301;54.332;48.386;2022-08-11T03:05:13;99571.28;;;21.61;73.27
38530;BME280;24301;54.332;48.386;2022-08-11T03:08:10;99569.47;;;21.44;74.13
38530;BME280;24301;54.332;48.386;2022-08-11T03:11:16;99571.38;;;21.42;74.71
38530;BME280;24301;54.332;48.386;2022-08-11T03:14:30;99578.22;;;21.48;74.97
38530;BME280;24301;54.332;48.386;2022-08-11T03:17:29;99580.66;;;21.35;74.97
38530;BME280;24301;54.332;48.386;2022-08-11T03:25:58;99596.13;;;21.28;76.19
38530;BME280;24301;54.332;48.386;2022-08-11T03:31:24;99591.66;;;21.46;75.23
38530;BME280;24301;54.332;48.386;2022-08-11T03:34:05;99598.56;;;21.50;75.32
38530;BME280;24301;54.332;48.386;2022-08-11T03:45:00;99600.16;;;21.54;75.02
38530;BME280;24301;54.332;48.386;2022-08-11T03:55:59;99614.03;;;21.98;73.70
38530;BME280;24301;54.332;48.386;2022-08-11T04:04:57;99627.34;;;23.01;69.73
38530;BME280;24301;54.332;48.386;2022-08-11T04:51:26;99644.06;;;25.02;61.58
38530;BME280;24301;54.332;48.386;2022-08-11T04:57:16;99638.97;;;26.72;57.18
38530;BME280;24301;54.332;48.386;2022-08-11T05:00:11;99638.66;;;27.14;53.63
38530;BME280;24301;54.332;48.386;2022-08-11T05:06:05;99651.66;;;24.95;58.61
38530;BME280;24301;54.332;48.386;2022-08-11T05:14:44;99644.31;;;25.12;58.86
38530;BME280;24301;54.332;48.386;2022-08-11T05:17:57;99649.13;;;26.30;56.31
38530;BME280;24301;54.332;48.386;2022-08-11T05:20:54;99648.72;;;27.12;51.53
38530;BME280;24301;54.332;48.386;2022-08-11T05:23:47;99651.03;;;27.30;51.82
38530;BME280;24301;54.332;48.386;2022-08-11T05:26:51;99654.09;;;27.12;51.29
38530;BME280;24301;54.332;48.386;2022-08-11T05:29:44;99663.75;;;26.38;52.76
38530;BME280;24301;54.332;48.386;2022-08-11T05:32:40;99667.31;;;25.86;54.53
38530;BME280;24301;54.332;48.386;2022-08-11T05:35:40;99664.84;;;25.82;54.17
38530;BME280;24301;54.332;48.386;2022-08-11T05:38:21;99670.75;;;27.06;51.80
38530;BME280;24301;54.332;48.386;2022-08-11T05:41:07;99673.00;;;28.79;47.35
38530;BME280;24301;54.332;48.386;2022-08-11T05:43:59;99665.81;;;29.79;44.80
38530;BME280;24301;54.332;48.386;2022-08-11T05:46:44;99676.19;;;28.62;46.30
38530;BME280;24301;54.332;48.386;2022-08-11T05:49:31;99689.53;;;26.94;50.16
38530;BME280;24301;54.332;48.386;2022-08-11T05:52:19;99696.72;;;25.89;52.78
38530;BME280;24301;54.332;48.386;2022-08-11T05:55:05;99682.00;;;25.54;53.69
38530;BME280;24301;54.332;48.386;2022-08-11T05:57:55;99701.56;;;25.42;54.80
38530;BME280;24301;54.332;48.386;2022-08-11T06:00:23;99709.09;;;25.22;55.11
38530;BME280;24301;54.332;48.386;2022-08-11T06:02:51;99706.38;;;24.94;56.27
38530;BME280;24301;54.332;48.386;2022-08-11T06:05:31;99706.16;;;24.83;57.18
38530;BME280;24301;54.332;48.386;2022-08-11T06:07:59;99698.97;;;25.54;54.65
38530;BME280;24301;54.332;48.386;2022-08-11T06:10:31;99705.22;;;25.40;53.30
38530;BME280;24301;54.332;48.386;2022-08-11T06:13:00;99715.69;;;25.60;52.04
38530;BME280;24301;54.332;48.386;2022-08-11T06:15:30;99720.03;;;26.56;49.88
38530;BME280;24301;54.332;48.386;2022-08-11T06:17:58;99711.84;;;26.58;49.16
38530;BME280;24301;54.332;48.386;2022-08-11T06:20:25;99712.25;;;25.43;51.53
38530;BME280;24301;54.332;48.386;2022-08-11T06:23:01;99718.44;;;25.02;53.69
38530;BME280;24301;54.332;48.386;2022-08-11T06:25:35;99714.19;;;25.27;53.42
38530;BME280;24301;54.332;48.386;2022-08-11T06:28:03;99694.97;;;25.33;52.89
38530;BME280;24301;54.332;48.386;2022-08-11T06:30:33;99707.81;;;24.86;53.48
38530;BME280;24301;54.332;48.386;2022-08-11T06:33:08;99701.63;;;24.54;53.17
38530;BME280;24301;54.332;48.386;2022-08-11T06:35:56;99700.38;;;24.46;53.29
38530;BME280;24301;54.332;48.386;2022-08-11T06:38:27;99704.75;;;24.77;53.21
38530;BME280;24301;54.332;48.386;2022-08-11T06:41:02;99708.47;;;25.60;51.25
38530;BME280;24301;54.332;48.386;2022-08-11T06:44:05;99702.56;;;27.38;47.70
38530;BME280;24301;54.332;48.386;2022-08-11T06:46:38;99722.41;;;27.37;45.96
38530;BME280;24301;54.332;48.386;2022-08-11T06:49:32;99730.50;;;26.74;46.44
38530;BME280;24301;54.332;48.386;2022-08-11T06:52:18;99712.66;;;25.79;49.21
38530;BME280;24301;54.332;48.386;2022-08-11T06:54:52;99704.50;;;25.24;51.02
38530;BME280;24301;54.332;48.386;2022-08-11T06:57:22;99719.41;;;25.15;51.24
38530;BME280;24301;54.332;48.386;2022-08-11T07:00:07;99704.00;;;25.32;50.56
38530;BME280;24301;54.332;48.386;2022-08-11T07:03:11;99694.75;;;25.36;49.90
38530;BME280;24301;54.332;48.386;2022-08-11T07:06:24;99701.97;;;25.50;49.46
38530;BME280;24301;54.332;48.386;2022-08-11T07:11:59;99729.34;;;25.42;47.90
38530;BME280;24301;54.332;48.386;2022-08-11T07:14:51;99702.63;;;25.53;48.24
38530;BME280;24301;54.332;48.386;2022-08-11T07:17:44;99708.56;;;25.86;47.71
38530;BME280;24301;54.332;48.386;2022-08-11T07:20:38;99717.78;;;26.09;46.65
38530;BME280;24301;54.332;48.386;2022-08-11T07:23:34;99716.44;;;25.62;48.29
38530;BME280;24301;54.332;48.386;2022-08-11T07:26:23;99708.91;;;25.54;48.48
38530;BME280;24301;54.332;48.386;2022-08-11T07:29:12;99709.97;;;25.79;47.60
38530;BME280;24301;54.332;48.386;2022-08-11T07:31:45;99711.28;;;26.39;46.73
38530;BME280;24301;54.332;48.386;2022-08-11T07:36:54;99698.41;;;27.21;43.99
38530;BME280;24301;54.332;48.386;2022-08-11T07:39:24;99708.59;;;27.17;44.62
38530;BME280;24301;54.332;48.386;2022-08-11T07:41:52;99709.13;;;27.09;44.59
38530;BME280;24301;54.332;48.386;2022-08-11T07:44:19;99697.94;;;27.03;44.67
38530;BME280;24301;54.332;48.386;2022-08-11T07:46:48;99696.28;;;27.13;44.74
38530;BME280;24301;54.332;48.386;2022-08-11T07:49:36;99727.91;;;26.85;45.31
38530;BME280;24301;54.332;48.386;2022-08-11T07:52:21;99705.56;;;27.46;44.10
38530;BME280;24301;54.332;48.386;2022-08-11T07:54:58;99707.41;;;27.83;43.46
38530;BME280;24301;54.332;48.386;2022-08-11T07:57:25;99707.69;;;28.27;42.36
38530;BME280;24301;54.332;48.386;2022-08-11T08:00:10;99709.03;;;28.91;40.15
38530;BME280;24301;54.332;48.386;2022-08-11T08:02:57;99694.38;;;28.60;39.99
38530;BME280;24301;54.332;48.386;2022-08-11T08:05:43;99716.28;;;29.14;40.00
38530;BME280;24301;54.332;48.386;2022-08-11T08:08:28;99698.75;;;29.63;39.43
38530;BME280;24301;54.332;48.386;2022-08-11T08:11:14;99701.31;;;29.65;38.88
38530;BME280;24301;54.332;48.386;2022-08-11T08:13:59;99697.63;;;28.29;40.72
38530;BME280;24301;54.332;48.386;2022-08-11T08:16:45;99702.06;;;28.42;40.92
38530;BME280;24301;54.332;48.386;2022-08-11T08:19:31;99708.59;;;27.42;42.66
38530;BME280;24301;54.332;48.386;2022-08-11T08:21:57;99702.47;;;26.89;43.55
38530;BME280;24301;54.332;48.386;2022-08-11T08:24:24;99706.22;;;26.22;45.55
38530;BME280;24301;54.332;48.386;2022-08-11T08:27:11;99705.97;;;25.85;46.86
38530;BME280;24301;54.332;48.386;2022-08-11T08:29:39;99702.88;;;25.21;48.36
38530;BME280;24301;54.332;48.386;2022-08-11T08:32:25;99717.84;;;24.67;49.75
38530;BME280;24301;54.332;48.386;2022-08-11T08:34:53;99727.75;;;24.22;51.78
38530;BME280;24301;54.332;48.386;2022-08-11T08:37:25;99713.13;;;24.11;51.29
38530;BME280;24301;54.332;48.386;2022-08-11T08:39:52;99733.06;;;24.07;50.38
38530;BME280;24301;54.332;48.386;2022-08-11T08:42:27;99722.13;;;24.10;51.23
38530;BME280;24301;54.332;48.386;2022-08-11T08:45:09;99730.03;;;23.97;51.99
38530;BME280;24301;54.332;48.386;2022-08-11T08:47:40;99726.91;;;24.05;51.41
38530;BME280;24301;54.332;48.386;2022-08-11T08:50:13;99708.31;;;24.02;50.41
38530;BME280;24301;54.332;48.386;2022-08-11T08:52:46;99725.13;;;23.90;50.66
38530;BME280;24301;54.332;48.386;2022-08-11T08:55:17;99709.72;;;23.77;51.17
38530;BME280;24301;54.332;48.386;2022-08-11T08:57:45;99697.19;;;23.62;51.64
38530;BME280;24301;54.332;48.386;2022-08-11T09:00:14;99712.09;;;23.51;51.75
38530;BME280;24301;54.332;48.386;2022-08-11T09:02:41;99706.63;;;23.69;52.29
38530;BME280;24301;54.332;48.386;2022-08-11T09:05:08;99721.66;;;23.88;52.19
38530;BME280;24301;54.332;48.386;2022-08-11T09:07:37;99723.72;;;23.82;51.69
38530;BME280;24301;54.332;48.386;2022-08-11T09:10:04;99703.69;;;23.58;52.29
38530;BME280;24301;54.332;48.386;2022-08-11T09:12:32;99716.31;;;23.56;52.36
38530;BME280;24301;54.332;48.386;2022-08-11T09:15:03;99717.78;;;23.61;52.87
38530;BME280;24301;54.332;48.386;2022-08-11T09:20:09;99715.97;;;23.78;52.76
38530;BME280;24301;54.332;48.386;2022-08-11T09:22:39;99716.13;;;23.91;51.57
38530;BME280;24301;54.332;48.386;2022-08-11T09:25:26;99706.28;;;23.75;51.45
38530;BME280;24301;54.332;48.386;2022-08-11T09:28:13;99703.69;;;23.58;52.49
38530;BME280;24301;54.332;48.386;2022-08-11T09:30:41;99721.69;;;23.56;52.15
38530;BME280;24301;54.332;48.386;2022-08-11T09:33:09;99708.88;;;23.77;51.67
38530;BME280;24301;54.332;48.386;2022-08-11T09:35:38;99712.47;;;23.92;51.68
38530;BME280;24301;54.332;48.386;2022-08-11T09:38:09;99709.34;;;24.16;51.15
38530;BME280;24301;54.332;48.386;2022-08-11T09:40:55;99703.53;;;24.38;50.35
38530;BME280;24301;54.332;48.386;2022-08-11T09:43:21;99712.34;;;24.40;50.25
38530;BME280;24301;54.332;48.386;2022-08-11T09:46:08;99697.28;;;24.37;50.20
38530;BME280;24301;54.332;48.386;2022-08-11T09:48:38;99701.88;;;24.21;50.62
38530;BME280;24301;54.332;48.386;2022-08-11T09:51:06;99700.41;;;23.99;51.42
38530;BME280;24301;54.332;48.386;2022-08-11T09:53:43;99711.97;;;23.85;51.90
38530;BME280;24301;54.332;48.386;2022-08-11T09:56:13;99707.44;;;23.86;52.62
38530;BME280;24301;54.332;48.386;2022-08-11T09:59:00;99701.25;;;23.85;52.93
38530;BME280;24301;54.332;48.386;2022-08-11T10:01:32;99707.44;;;23.86;53.15
38530;BME280;24301;54.332;48.386;2022-08-11T10:04:12;99703.47;;;23.93;53.82
38530;BME280;24301;54.332;48.386;2022-08-11T10:06:44;99705.56;;;23.88;52.92
38530;BME280;24301;54.332;48.386;2022-08-11T10:09:45;99701.81;;;23.90;52.80
38530;BME280;24301;54.332;48.386;2022-08-11T10:12:20;99708.44;;;23.68;53.60
38530;BME280;24301;54.332;48.386;2022-08-11T10:14:53;99705.53;;;23.57;54.14
38530;BME280;24301;54.332;48.386;2022-08-11T10:17:41;99719.72;;;23.59;54.95
38530;BME280;24301;54.332;48.386;2022-08-11T10:20:29;99697.44;;;23.73;54.29
38530;BME280;24301;54.332;48.386;2022-08-11T10:22:57;99699.13;;;23.90;53.91
38530;BME280;24301;54.332;48.386;2022-08-11T10:25:42;99685.31;;;23.82;53.68
38530;BME280;24301;54.332;48.386;2022-08-11T10:28:27;99698.59;;;24.00;53.77
38530;BME280;24301;54.332;48.386;2022-08-11T10:30:55;99682.84;;;24.09;53.28
38530;BME280;24301;54.332;48.386;2022-08-11T10:33:40;99694.22;;;23.82;53.14
38530;BME280;24301;54.332;48.386;2022-08-11T10:36:34;99679.25;;;23.78;54.17
38530;BME280;24301;54.332;48.386;2022-08-11T10:39:08;99684.69;;;23.93;53.68
38530;BME280;24301;54.332;48.386;2022-08-11T10:41:36;99697.84;;;23.81;53.61
38530;BME280;24301;54.332;48.386;2022-08-11T10:44:21;99680.13;;;23.79;53.92
38530;BME280;24301;54.332;48.386;2022-08-11T10:46:49;99678.56;;;23.91;52.63
38530;BME280;24301;54.332;48.386;2022-08-11T10:49:35;99693.88;;;23.89;53.57
38530;BME280;24301;54.332;48.386;2022-08-11T10:52:02;99693.06;;;23.87;54.61
38530;BME280;24301;54.332;48.386;2022-08-11T10:54:47;99693.25;;;23.83;53.84
38530;BME280;24301;54.332;48.386;2022-08-11T10:57:32;99681.00;;;23.79;54.46
38530;BME280;24301;54.332;48.386;2022-08-11T11:00:17;99690.31;;;23.88;54.06
38530;BME280;24301;54.332;48.386;2022-08-11T11:02:44;99689.28;;;23.91;53.00
38530;BME280;24301;54.332;48.386;2022-08-11T11:05:29;99682.00;;;23.93;52.48
38530;BME280;24301;54.332;48.386;2022-08-11T11:08:09;99694.09;;;24.00;53.08
38530;BME280;24301;54.332;48.386;2022-08-11T11:10:57;99697.16;;;23.94;52.25
38530;BME280;24301;54.332;48.386;2022-08-11T11:13:25;99695.53;;;23.75;53.92
38530;BME280;24301;54.332;48.386;2022-08-11T11:16:11;99693.63;;;23.77;55.52
38530;BME280;24301;54.332;48.386;2022-08-11T11:19:00;99692.94;;;23.90;55.60
38530;BME280;24301;54.332;48.386;2022-08-11T11:21:29;99702.34;;;23.97;55.00
38530;BME280;24301;54.332;48.386;2022-08-11T11:27:16;99692.94;;;23.90;55.29
38530;BME280;24301;54.332;48.386;2022-08-11T11:30:01;99700.34;;;23.85;56.70
38530;BME280;24301;54.332;48.386;2022-08-11T11:37:37;99684.13;;;23.72;57.02
38530;BME280;24301;54.332;48.386;2022-08-11T11:40:09;99691.34;;;23.86;56.64
38530;BME280;24301;54.332;48.386;2022-08-11T11:42:38;99695.50;;;23.91;55.90
38530;BME280;24301;54.332;48.386;2022-08-11T11:45:06;99678.00;;;24.00;55.82
38530;BME280;24301;54.332;48.386;2022-08-11T11:47:33;99691.59;;;23.97;55.73
38530;BME280;24301;54.332;48.386;2022-08-11T11:50:01;99700.03;;;23.91;55.65
38530;BME280;24301;54.332;48.386;2022-08-11T11:52:28;99688.91;;;23.97;55.86
38530;BME280;24301;54.332;48.386;2022-08-11T11:54:56;99688.69;;;24.02;55.54
38530;BME280;24301;54.332;48.386;2022-08-11T11:57:23;99688.50;;;23.89;54.65
38530;BME280;24301;54.332;48.386;2022-08-11T12:00:09;99695.50;;;23.91;54.75
38530;BME280;24301;54.332;48.386;2022-08-11T12:02:55;99683.59;;;23.81;54.92
38530;BME280;24301;54.332;48.386;2022-08-11T12:05:23;99692.41;;;23.83;54.99
38530;BME280;24301;54.332;48.386;2022-08-11T12:07:52;99700.50;;;23.97;55.34
38530;BME280;24301;54.332;48.386;2022-08-11T12:10:38;99696.28;;;23.93;54.66
38530;BME280;24301;54.332;48.386;2022-08-11T12:13:05;99687.19;;;23.96;54.68
38530;BME280;24301;54.332;48.386;2022-08-11T12:15:51;99687.81;;;24.01;54.44
38530;BME280;24301;54.332;48.386;2022-08-11T12:18:17;99683.22;;;24.03;54.50
38530;BME280;24301;54.332;48.386;2022-08-11T12:20:44;99684.25;;;24.01;54.51
38530;BME280;24301;54.332;48.386;2022-08-11T12:23:11;99687.06;;;23.83;54.69
38530;BME280;24301;54.332;48.386;2022-08-11T12:25:57;99691.72;;;23.79;54.95
38530;BME280;24301;54.332;48.386;2022-08-11T12:28:43;99683.34;;;23.70;54.89
38530;BME280;24301;54.332;48.386;2022-08-11T12:31:09;99680.53;;;23.87;54.33
38530;BME280;24301;54.332;48.386;2022-08-11T12:33:38;99679.31;;;23.93;53.72
38530;BME280;24301;54.332;48.386;2022-08-11T12:36:08;99678.72;;;24.04;53.90
38530;BME280;24301;54.332;48.386;2022-08-11T12:38:43;99680.00;;;24.13;54.04
38530;BME280;24301;54.332;48.386;2022-08-11T12:41:11;99683.22;;;24.03;54.23
38530;BME280;24301;54.332;48.386;2022-08-11T12:43:59;99676.03;;;24.04;54.41
38530;BME280;24301;54.332;48.386;2022-08-11T12:46:44;99667.72;;;23.92;54.35
38530;BME280;24301;54.332;48.386;2022-08-11T12:49:13;99670.75;;;23.86;54.51
38530;BME280;24301;54.332;48.386;2022-08-11T12:52:06;99673.97;;;23.93;55.01
38530;BME280;24301;54.332;48.386;2022-08-11T12:54:43;99664.38;;;23.73;54.82
38530;BME280;24301;54.332;48.386;2022-08-11T12:57:14;99681.00;;;23.79;55.22
38530;BME280;24301;54.332;48.386;2022-08-11T13:00:00;99675.09;;;23.73;54.60
38530;BME280;24301;54.332;48.386;2022-08-11T13:02:46;99671.63;;;23.56;55.23
38530;BME280;24301;54.332;48.386;2022-08-11T13:05:31;99675.69;;;23.47;56.13
38530;BME280;24301;54.332;48.386;2022-08-11T13:08:02;99685.28;;;23.51;56.38
38530;BME280;24301;54.332;48.386;2022-08-11T13:10:31;99672.22;;;23.61;55.95
38530;BME280;24301;54.332;48.386;2022-08-11T13:13:18;99683.09;;;23.74;55.29
38530;BME280;24301;54.332;48.386;2022-08-11T13:15:48;99675.88;;;23.91;54.77
38530;BME280;24301;54.332;48.386;2022-08-11T13:18:23;99674.16;;;23.90;53.90
38530;BME280;24301;54.332;48.386;2022-08-11T13:20:53;99669.53;;;23.92;53.99
38530;BME280;24301;54.332;48.386;2022-08-11T13:23:21;99672.69;;;23.84;54.40
38530;BME280;24301;54.332;48.386;2022-08-11T13:25:48;99679.84;;;23.83;54.62
38530;BME280;24301;54.332;48.386;2022-08-11T13:28:17;99680.41;;;23.74;55.07
38530;BME280;24301;54.332;48.386;2022-08-11T13:30:46;99669.47;;;23.77;54.41
38530;BME280;24301;54.332;48.386;2022-08-11T13:33:32;99661.22;;;23.66;54.99
38530;BME280;24301;54.332;48.386;2022-08-11T13:36:00;99663.72;;;23.69;55.23
38530;BME280;24301;54.332;48.386;2022-08-11T13:38:27;99662.97;;;23.81;55.00
38530;BME280;24301;54.332;48.386;2022-08-11T13:40:54;99665.78;;;23.80;54.23
38530;BME280;24301;54.332;48.386;2022-08-11T13:43:22;99651.63;;;23.92;54.09
38530;BME280;24301;54.332;48.386;2022-08-11T13:45:48;99655.63;;;23.85;54.02
38530;BME280;24301;54.332;48.386;2022-08-11T13:48:18;99649.56;;;23.81;54.00
38530;BME280;24301;54.332;48.386;2022-08-11T13:50:45;99651.84;;;23.73;54.02
38530;BME280;24301;54.332;48.386;2022-08-11T13:53:30;99654.44;;;23.75;54.02
38530;BME280;24301;54.332;48.386;2022-08-11T13:55:58;99655.75;;;23.67;53.96
38530;BME280;24301;54.332;48.386;2022-08-11T13:58:26;99652.72;;;23.58;52.92
38530;BME280;24301;54.332;48.386;2022-08-11T14:00:53;99651.69;;;23.60;52.68
38530;BME280;24301;54.332;48.386;2022-08-11T14:03:24;99643.97;;;23.70;52.11
38530;BME280;24301;54.332;48.386;2022-08-11T14:05:52;99645.72;;;23.71;51.99
38530;BME280;24301;54.332;48.386;2022-08-11T14:08:26;99652.22;;;23.67;52.00
38530;BME280;24301;54.332;48.386;2022-08-11T14:10:59;99646.94;;;23.65;52.00
38530;BME280;24301;54.332;48.386;2022-08-11T14:13:45;99648.56;;;23.68;51.98
38530;BME280;24301;54.332;48.386;2022-08-11T14:16:32;99643.41;;;23.65;52.41
38530;BME280;24301;54.332;48.386;2022-08-11T14:19:06;99633.78;;;23.61;51.65
38530;BME280;24301;54.332;48.386;2022-08-11T14:21:37;99636.38;;;23.62;51.78
38530;BME280;24301;54.332;48.386;2022-08-11T14:24:25;99633.47;;;23.51;50.89
38530;BME280;24301;54.332;48.386;2022-08-11T14:26:51;99638.16;;;23.47;50.70
38530;BME280;24301;54.332;48.386;2022-08-11T14:29:20;99643.00;;;23.41;51.43
38530;BME280;24301;54.332;48.386;2022-08-11T14:31:50;99634.09;;;23.40;51.48
38530;BME280;24301;54.332;48.386;2022-08-11T14:34:18;99636.00;;;23.38;51.84
38530;BME280;24301;54.332;48.386;2022-08-11T14:36:51;99634.09;;;23.40;52.20
38530;BME280;24301;54.332;48.386;2022-08-11T14:39:22;99636.97;;;23.37;52.05
38530;BME280;24301;54.332;48.386;2022-08-11T14:41:54;99638.84;;;23.35;52.37
38530;BME280;24301;54.332;48.386;2022-08-11T14:44:45;99645.50;;;23.28;52.47
38530;BME280;24301;54.332;48.386;2022-08-11T14:47:36;99656.03;;;23.15;53.36
38530;BME280;24301;54.332;48.386;2022-08-11T14:50:04;99664.31;;;23.10;53.12
38530;BME280;24301;54.332;48.386;2022-08-11T14:52:32;99663.22;;;23.14;53.40
38530;BME280;24301;54.332;48.386;2022-08-11T14:55:02;99660.69;;;23.11;53.05
38530;BME280;24301;54.332;48.386;2022-08-11T14:57:47;99648.34;;;23.24;52.76
38530;BME280;24301;54.332;48.386;2022-08-11T15:00:14;99657.00;;;23.30;52.18
38530;BME280;24301;54.332;48.386;2022-08-11T15:02:44;99672.53;;;23.23;52.00
38530;BME280;24301;54.332;48.386;2022-08-11T15:05:29;99657.16;;;23.10;51.58
38530;BME280;24301;54.332;48.386;2022-08-11T15:07:56;99667.00;;;23.10;51.84
38530;BME280;24301;54.332;48.386;2022-08-11T15:10:23;99659.66;;;22.98;52.01
38530;BME280;24301;54.332;48.386;2022-08-11T15:12:50;99665.78;;;23.00;51.98
38530;BME280;24301;54.332;48.386;2022-08-11T15:15:16;99666.81;;;22.97;51.88
38530;BME280;24301;54.332;48.386;2022-08-11T15:18:05;99665.19;;;22.94;51.57
38530;BME280;24301;54.332;48.386;2022-08-11T15:20:32;99678.66;;;22.93;51.26
38530;BME280;24301;54.332;48.386;2022-08-11T15:23:16;99661.97;;;22.88;51.95
38530;BME280;24301;54.332;48.386;2022-08-11T15:26:16;99662.69;;;22.91;51.67
38530;BME280;24301;54.332;48.386;2022-08-11T15:28:48;99669.94;;;22.89;51.86
38530;BME280;24301;54.332;48.386;2022-08-11T15:31:35;99664.75;;;22.86;51.93
38530;BME280;24301;54.332;48.386;2022-08-11T15:34:24;99673.72;;;22.85;51.75
38530;BME280;24301;54.332;48.386;2022-08-11T15:37:26;99680.53;;;22.75;52.08
38530;BME280;24301;54.332;48.386;2022-08-11T15:42:50;99665.03;;;22.64;52.19
38530;BME280;24301;54.332;48.386;2022-08-11T15:45:38;99671.59;;;22.58;51.64
38530;BME280;24301;54.332;48.386;2022-08-11T15:48:26;99674.19;;;22.60;51.86
38530;BME280;24301;54.332;48.386;2022-08-11T15:51:17;99675.22;;;22.57;50.86
38530;BME280;24301;54.332;48.386;2022-08-11T15:53:53;99671.91;;;22.52;51.21
38530;BME280;24301;54.332;48.386;2022-08-11T15:56:25;99670.38;;;22.48;51.38
38530;BME280;24301;54.332;48.386;2022-08-11T15:58:53;99676.81;;;22.44;51.15
38530;BME280;24301;54.332;48.386;2022-08-11T16:01:43;99664.81;;;22.33;51.09
38530;BME280;24301;54.332;48.386;2022-08-11T16:04:30;99679.09;;;22.34;50.79
38530;BME280;24301;54.332;48.386;2022-08-11T16:07:11;99677.44;;;22.31;50.68
38530;BME280;24301;54.332;48.386;2022-08-11T16:12:11;99678.69;;;22.24;51.21
38530;BME280;24301;54.332;48.386;2022-08-11T16:14:49;99682.50;;;22.20;50.99
38530;BME280;24301;54.332;48.386;2022-08-11T16:17:39;99675.56;;;22.16;51.17
38530;BME280;24301;54.332;48.386;2022-08-11T16:20:07;99680.31;;;22.10;51.13
38530;BME280;24301;54.332;48.386;2022-08-11T16:22:34;99680.38;;;22.09;51.17
38530;BME280;24301;54.332;48.386;2022-08-11T16:25:16;99684.16;;;22.05;50.87
38530;BME280;24301;54.332;48.386;2022-08-11T16:27:47;99682.59;;;22.01;50.49
38530;BME280;24301;54.332;48.386;2022-08-11T16:30:14;99687.94;;;22.01;50.62
38530;BME280;24301;54.332;48.386;2022-08-11T16:32:43;99686.34;;;21.96;50.97
38530;BME280;24301;54.332;48.386;2022-08-11T16:35:14;99689.09;;;21.95;50.88
38530;BME280;24301;54.332;48.386;2022-08-11T16:38:01;99691.00;;;21.93;50.66
38530;BME280;24301;54.332;48.386;2022-08-11T16:40:50;99703.75;;;21.88;50.68
38530;BME280;24301;54.332;48.386;2022-08-11T16:43:18;99694.03;;;21.85;50.77
38530;BME280;24301;54.332;48.386;2022-08-11T16:46:04;99703.88;;;21.85;50.82
38530;BME280;24301;54.332;48.386;2022-08-11T16:48:50;99707.56;;;21.82;51.21
38530;BME280;24301;54.332;48.386;2022-08-11T16:51:20;99708.69;;;21.78;50.84
38530;BME280;24301;54.332;48.386;2022-08-11T16:53:48;99712.34;;;21.75;50.78
38530;BME280;24301;54.332;48.386;2022-08-11T16:56:18;99707.16;;;21.72;50.79
38530;BME280;24301;54.332;48.386;2022-08-11T16:59:07;99708.09;;;21.71;50.10
38530;BME280;24301;54.332;48.386;2022-08-11T17:01:59;99704.72;;;21.67;49.80
38530;BME280;24301;54.332;48.386;2022-08-11T17:07:23;99699.84;;;21.57;50.20